Data for 05/10/2007

Time Sea-Level Adjusted Pressure Absolute Pressure Temperature Relative Humidity Dew Point   
(mb) (inHg) (mb) (inHg) (C) (F) (%) (C) (F)
00:05 1019 30.09 848 25.04 13.5 56.3 63 6.6 43.9
00:10 1019 30.09 848 25.04 13.6 56.5 63 6.7 44
00:15 1019 30.09 848 25.04 13.5 56.3 63 6.7 44.1
00:20 1019 30.09 848 25.04 13.5 56.3 63 6.6 43.9
00:25 1019 30.09 848 25.04 13.5 56.2 62 6.4 43.6
00:30 1019 30.09 848 25.04 13.6 56.4 62 6.4 43.6
00:35 1019 30.09 848 25.04 13.5 56.3 62 6.3 43.4
00:40 1019 30.09 848 25.04 13.4 56 63 6.5 43.7
00:45 1019 30.09 848 25.04 13.3 55.9 63 6.4 43.5
00:50 1019 30.09 848 25.04 13.3 55.9 62 6.2 43.2
00:55 1019 30.09 848 25.04 13.3 55.9 63 6.4 43.5
01:00 1019 30.09 848 25.04 13.1 55.7 63 6.3 43.4
01:05 1019 30.09 848 25.04 13 55.4 64 6.3 43.3
01:10 1019 30.09 848 25.04 12.9 55.2 63 6.2 43.1
01:15 1019 30.09 848 25.04 13.1 55.7 61 5.9 42.6
01:20 1019 30.09 848 25.04 13.2 55.7 61 6 42.8
01:25 1019 30.09 848 25.04 13.2 55.8 62 6 42.9
01:30 1019 30.09 848 25.04 13.1 55.5 62 6 42.8
01:35 1019 30.09 848 25.04 12.9 55.3 63 6.1 43
01:40 1019 30.09 848 25.04 12.9 55.3 62 5.9 42.7
01:45 1019 30.09 848 25.04 13 55.3 62 5.9 42.7
01:50 1019 30.09 848 25.04 13 55.4 62 6 42.7
01:55 1019 30.09 848 25.04 13 55.4 63 6.1 43
02:00 1019 30.09 848 25.04 12.9 55.3 63 6 42.8
02:05 1019 30.09 848 25.04 13 55.4 62 5.9 42.7
02:10 1019 30.09 848 25.04 13.1 55.5 62 5.9 42.7
02:15 1019 30.09 848 25.04 13.2 55.7 60 5.7 42.2
02:20 1019 30.09 848 25.04 13.4 56.1 59 5.7 42.2
02:25 1019 30.09 848 25.04 13.5 56.2 59 5.7 42.2
02:30 1019 30.09 848 25.04 13.5 56.2 59 5.6 42.2
02:35 1019 30.09 848 25.04 13.5 56.2 58 5.5 41.9
02:40 1019 30.09 848 25.04 13.4 56.1 59 5.7 42.3
02:45 1019 30.09 848 25.04 13.2 55.8 61 5.9 42.6
02:50 1019 30.09 848 25.04 13 55.3 62 5.9 42.6
02:55 1019 30.09 848 25.04 12.8 55.1 63 6 42.8
03:00 1019 30.09 848 25.04 12.7 54.8 64 6 42.8
03:05 1019 30.09 848 25.04 12.6 54.6 64 6 42.8
03:10 1019 30.09 848 25.04 12.5 54.5 64 6 42.9
03:15 1019 30.09 848 25.04 12.4 54.3 65 6 42.8
03:20 1019 30.09 848 25.04 12.4 54.2 66 6.1 43
03:25 1019 30.09 848 25.04 12.2 54 67 6.2 43.2
03:30 1019 30.09 848 25.04 12.1 53.7 68 6.3 43.3
03:35 1019 30.09 848 25.04 11.9 53.5 68 6.2 43.1
03:40 1019 30.09 848 25.04 11.9 53.3 68 6.2 43.1
03:45 1019 30.09 848 25.04 11.7 53.1 69 6.2 43.2
03:50 1019 30.09 848 25.04 11.5 52.8 69 6.1 42.9
03:55 1019 30.09 848 25.04 11.4 52.5 69 5.9 42.7
04:00 1019 30.09 848 25.04 11.3 52.3 68 5.7 42.3
04:05 1019 30.09 848 25.04 11.3 52.3 68 5.7 42.2
04:10 1019 30.09 848 25.04 11.2 52.2 67 5.4 41.7
04:15 1018 30.06 848 25.04 11.2 52.2 67 5.3 41.6
04:20 1018 30.06 848 25.04 11.1 52 67 5.2 41.4
04:25 1018 30.06 848 25.04 11 51.9 67 5.1 41.1
04:30 1019 30.09 848 25.04 11 51.8 66 4.9 40.7
04:35 1019 30.09 848 25.04 11.1 51.9 66 5.1 41.2
04:40 1019 30.09 848 25.04 11 51.8 66 4.8 40.7
04:45 1019 30.09 848 25.04 11 51.8 65 4.6 40.3
04:50 1019 30.09 848 25.04 11 51.7 64 4.5 40
04:55 1019 30.09 849 25.07 11 51.8 63 4.3 39.8
05:00 1020 30.12 849 25.07 11 51.8 63 4.3 39.7
05:05 1020 30.12 849 25.07 11.1 52 61 4 39.2
05:10 1020 30.12 849 25.07 11.2 52.1 61 4 39.1
05:15 1020 30.12 849 25.07 11.1 52.1 61 4 39.2
05:20 1020 30.12 849 25.07 11 51.9 61 3.9 39.1
05:25 1020 30.12 849 25.07 10.9 51.6 62 3.9 39
05:30 1019 30.09 849 25.07 10.6 51.1 64 4 39.3
05:35 1019 30.09 849 25.07 10.4 50.7 64 3.8 38.9
05:40 1019 30.09 848 25.04 10.2 50.4 64 3.7 38.6
05:45 1019 30.09 848 25.04 10.2 50.3 64 3.7 38.7
05:50 1019 30.09 848 25.04 10.1 50.1 64 3.7 38.6
05:55 1019 30.09 848 25.04 10.1 50.2 64 3.7 38.6
06:00 1019 30.09 849 25.07 10.1 50.1 65 3.8 38.8
06:05 1019 30.09 848 25.04 10 49.9 65 3.7 38.6
06:10 1019 30.09 848 25.04 9.8 49.7 65 3.7 38.6
06:15 1020 30.12 849 25.07 9.7 49.5 65 3.6 38.5
06:20 1019 30.09 849 25.07 9.7 49.4 65 3.4 38.2
06:25 1020 30.12 849 25.07 9.7 49.4 65 3.4 38.1
06:30 1019 30.09 849 25.07 9.6 49.3 66 3.5 38.4
06:35 1019 30.09 849 25.07 9.6 49.2 64 3.2 37.8
06:40 1019 30.09 849 25.07 9.7 49.5 63 3.1 37.7
06:45 1019 30.09 848 25.04 9.7 49.5 64 3.2 37.8
06:50 1019 30.09 848 25.04 9.6 49.3 63 3 37.4
06:55 1019 30.09 849 25.07 9.8 49.6 63 3 37.5
07:00 1019 30.09 849 25.07 9.8 49.6 62 2.9 37.2
07:05 1020 30.12 849 25.07 9.9 49.8 61 2.8 37.1
07:10 1020 30.12 849 25.07 10 50 60 2.7 36.9
07:15 1020 30.12 849 25.07 10.1 50.1 60 2.7 36.8
07:20 1020 30.12 850 25.1 10.3 50.6 58 2.5 36.5
07:25 1020 30.12 850 25.1 10.5 50.9 57 2.5 36.4
07:30 1021 30.15 850 25.1 10.7 51.2 58 2.8 37
07:35 1021 30.15 850 25.1 10.9 51.6 56 2.6 36.6
07:40 1021 30.15 850 25.1 11.1 52 56 2.7 36.8
07:45 1021 30.15 850 25.1 11.3 52.3 55 2.6 36.8
07:50 1021 30.15 850 25.1 11.3 52.3 55 2.5 36.5
07:55 1021 30.15 850 25.1 11.3 52.4 55 2.6 36.6
08:00 1021 30.15 850 25.1 11.4 52.5 55 2.7 36.8
08:05 1021 30.15 850 25.1 11.3 52.3 55 2.7 36.9
08:10 1021 30.15 850 25.1 11.5 52.7 55 2.8 37
08:15 1021 30.15 850 25.1 11.6 52.8 55 2.8 37
08:20 1021 30.15 850 25.1 11.6 52.8 54 2.8 37
08:25 1021 30.15 850 25.1 11.8 53.3 54 2.8 37.1
08:30 1021 30.15 850 25.1 12 53.7 53 2.9 37.2
08:35 1021 30.15 850 25.1 12.3 54.1 53 3.1 37.6
08:40 1021 30.15 850 25.1 12.3 54.1 53 3 37.4
08:45 1021 30.15 850 25.1 12 53.7 53 2.9 37.3
08:50 1021 30.15 850 25.1 12.2 54 53 3 37.5
08:55 1021 30.15 850 25.1 12.3 54.1 53 3.1 37.6
09:00 1021 30.15 850 25.1 12.5 54.4 52 3 37.3
09:05 1021 30.15 850 25.1 12.5 54.5 53 3.2 37.7
09:10 1021 30.15 850 25.1 12.7 54.8 52 3.1 37.5
09:15 1021 30.15 850 25.1 12.9 55.3 52 3.4 38.1
09:20 1021 30.15 850 25.1 13.2 55.7 51 3.2 37.8
09:25 1021 30.15 850 25.1 13.3 56 50 3.2 37.8
09:30 1020 30.12 850 25.1 13.8 56.8 51 3.8 38.8
09:35 1020 30.12 850 25.1 14 57.2 49 3.7 38.6
09:40 1020 30.12 849 25.07 13.9 56.9 50 3.7 38.6
09:45 1020 30.12 849 25.07 13.8 56.9 49 3.5 38.3
09:50 1020 30.12 849 25.07 13.9 57.1 49 3.5 38.3
09:55 1020 30.12 849 25.07 14.1 57.4 49 3.7 38.6
10:00 1020 30.12 849 25.07 14.5 58.2 48 3.9 39
10:05 1020 30.12 849 25.07 14.4 57.9 49 3.9 39
10:10 1020 30.12 849 25.07 14.6 58.2 48 3.6 38.5
10:15 1020 30.12 849 25.07 14.6 58.2 49 3.9 39.1
10:20 1020 30.12 849 25.07 14.6 58.3 49 4 39.2
10:25 1020 30.12 849 25.07 14.8 58.6 48 3.9 39.1
10:30 1020 30.12 849 25.07 14.9 58.9 48 4.1 39.3
10:35 1020 30.12 849 25.07 15 58.9 48 4.1 39.3
10:40 1019 30.09 849 25.07 15.4 59.7 46 4 39.3
10:45 1019 30.09 848 25.04 15.6 60.1 45 4 39.1
10:50 1019 30.09 849 25.07 15.7 60.2 46 4.3 39.8
10:55 1019 30.09 848 25.04 15.8 60.5 45 4.1 39.3
11:00 1019 30.09 848 25.04 16.3 61.4 45 4.3 39.8
11:05 1019 30.09 848 25.04 16.6 61.9 45 4.8 40.6
11:10 1019 30.09 848 25.04 16.5 61.7 44 4.3 39.7
11:15 1019 30.09 848 25.04 16.6 61.9 45 4.6 40.3
11:20 1019 30.09 848 25.04 16.9 62.4 44 4.7 40.4
11:25 1019 30.09 848 25.04 16.9 62.5 44 4.7 40.5
11:30 1019 30.09 848 25.04 17.2 62.9 44 5 41.1
11:35 1019 30.09 848 25.04 17.3 63.2 44 5.2 41.3
11:40 1019 30.09 848 25.04 17.5 63.6 44 5.3 41.6
11:45 1019 30.09 848 25.04 17.7 63.8 44 5.3 41.5
11:50 1019 30.09 848 25.04 17.8 64 44 5.4 41.7
11:55 1019 30.09 848 25.04 18.1 64.5 44 5.8 42.5
12:00 1019 30.09 848 25.04 18.2 64.8 42 5.3 41.5
12:05 1019 30.09 848 25.04 18.7 65.6 41 5.4 41.7
12:10 1019 30.09 848 25.04 18.9 66.1 41 5.6 42.1
12:15 1019 30.09 848 25.04 18.8 65.9 40 5.2 41.4
12:20 1019 30.09 848 25.04 19 66.1 40 5.3 41.6
12:25 1019 30.09 848 25.04 19.3 66.7 41 5.7 42.3
12:30 1019 30.09 848 25.04 19.8 67.6 38 5.3 41.5
12:35 1019 30.09 848 25.04 19.1 66.4 41 5.6 42
12:40 1018 30.06 848 25.04 19.1 66.5 40 5.4 41.7
12:45 1018 30.06 848 25.04 19.4 67 40 5.5 41.8
12:50 1018 30.06 848 25.04 19 66.2 41 5.5 41.8
12:55 1018 30.06 848 25.04 19.2 66.6 39 5.1 41.2
13:00 1018 30.06 847 25.01 19.3 66.7 39 5.3 41.6
13:05 1018 30.06 847 25.01 19.4 66.9 40 5.8 42.4
13:10 1018 30.06 847 25.01 19.4 66.9 40 5.5 41.9
13:15 1018 30.06 847 25.01 19.8 67.6 38 5.4 41.7
13:20 1018 30.06 847 25.01 19.7 67.5 39 5.6 42.1
13:25 1018 30.06 847 25.01 19.3 66.7 41 5.9 42.6
13:30 1018 30.06 847 25.01 18.7 65.7 42 5.6 42
13:35 1018 30.06 847 25.01 18.3 65 43 5.8 42.4
13:40 1018 30.06 847 25.01 17.7 63.9 44 5.4 41.8
13:45 1018 30.06 847 25.01 17.3 63.2 45 5.4 41.7
13:50 1018 30.06 847 25.01 16.8 62.3 46 5.4 41.7
13:55 1019 30.09 848 25.04 16.4 61.5 48 5.4 41.6
14:00 1019 30.09 848 25.04 16.1 61 48 5.4 41.7
14:05 1019 30.09 848 25.04 16 60.8 50 5.7 42.2
14:10 1018 30.06 847 25.01 15.8 60.5 52 6 42.8
14:15 1017 30.03 846 24.98 15.5 59.9 54 6.2 43.2
14:20 1017 30.03 846 24.98 15.3 59.5 53 5.7 42.3
14:25 1018 30.06 847 25.01 15.2 59.4 53 5.8 42.5
14:30 1019 30.09 848 25.04 15.2 59.4 52 5.6 42.1
14:35 1019 30.09 848 25.04 15 58.9 54 5.7 42.3
14:40 1019 30.09 849 25.07 14.8 58.7 57 6.4 43.6
14:45 1019 30.09 848 25.04 13.8 56.9 67 7.8 46
14:50 1018 30.06 847 25.01 12.6 54.6 70 7.3 45.1
14:55 1018 30.06 847 25.01 12.5 54.4 70 7.1 44.8
15:00 1018 30.06 848 25.04 12.5 54.4 72 7.6 45.7
15:05 1019 30.09 848 25.04 12.4 54.4 70 7.2 45
15:10 1019 30.09 848 25.04 12.6 54.7 70 7.3 45.1
15:15 1019 30.09 848 25.04 12.6 54.7 70 7.3 45.2
15:20 1019 30.09 848 25.04 12.6 54.6 68 6.9 44.5
15:25 1019 30.09 848 25.04 12.5 54.5 70 7.1 44.8
15:30 1019 30.09 848 25.04 12.3 54.1 70 7.1 44.7
15:35 1020 30.12 849 25.07 12.4 54.3 69 6.9 44.5
15:40 1020 30.12 849 25.07 12.5 54.4 68 6.8 44.2
15:45 1020 30.12 849 25.07 12.4 54.3 72 7.4 45.4
15:50 1021 30.15 850 25.1 12.4 54.3 70 7.1 44.8
15:55 1019 30.09 848 25.04 12.5 54.5 72 7.6 45.7
16:00 1019 30.09 848 25.04 12.4 54.3 72 7.5 45.5
16:05 1019 30.09 848 25.04 12.7 54.8 72 7.7 45.9
16:10 1019 30.09 848 25.04 13.1 55.6 71 8 46.4
16:15 1019 30.09 848 25.04 13.4 56 70 8.1 46.6
16:20 1019 30.09 848 25.04 13.6 56.5 68 8 46.3
16:25 1019 30.09 848 25.04 13.7 56.7 68 8 46.4
16:30 1018 30.06 848 25.04 13.6 56.5 70 8.3 46.9
16:35 1019 30.09 848 25.04 13.7 56.7 66 7.6 45.6
16:40 1019 30.09 848 25.04 13.9 56.9 67 7.9 46.3
16:45 1019 30.09 848 25.04 13.9 57.1 59 6 42.9
16:50 1019 30.09 848 25.04 14.4 57.9 65 8 46.4
16:55 1019 30.09 848 25.04 14 57.1 64 7.4 45.3
17:00 1019 30.09 848 25.04 14.4 57.8 62 7.3 45.2
17:05 1018 30.06 848 25.04 14.7 58.4 59 6.7 44.1
17:10 1019 30.09 848 25.04 15.7 60.2 54 6.6 43.8
17:15 1018 30.06 848 25.04 16.2 61.2 48 5.3 41.6
17:20 1018 30.06 847 25.01 15.9 60.7 52 6.1 43
17:25 1018 30.06 848 25.04 16 60.8 46 4.6 40.3
17:30 1018 30.06 847 25.01 16.6 61.8 45 4.6 40.3
17:35 1018 30.06 847 25.01 16.4 61.6 46 4.8 40.6
17:40 1017 30.03 846 24.98 16.1 60.9 49 5.4 41.8
17:45 1017 30.03 846 24.98 15.9 60.7 47 4.8 40.7
17:50 1017 30.03 846 24.98 16.4 61.5 48 5.3 41.6
17:55 1017 30.03 846 24.98 17 62.5 45 4.9 40.9
18:00 1017 30.03 846 24.98 16.8 62.2 46 5.2 41.4
18:05 1017 30.03 846 24.98 16.6 62 47 5.3 41.6
18:10 1017 30.03 846 24.98 16.8 62.3 45 4.8 40.7
18:15 1016 30 846 24.98 17 62.5 44 4.6 40.3
18:20 1017 30.03 846 24.98 16.9 62.5 43 4.4 40
18:25 1016 30 846 24.98 17.3 63.1 43 4.7 40.5
18:30 1016 30 846 24.98 17.8 64 42 4.7 40.4
18:35 1016 30 846 24.98 18 64.3 41 4.6 40.4
18:40 1016 30 846 24.98 18.1 64.6 39 4.2 39.5
18:45 1016 30 846 24.98 18.3 65 40 4.6 40.3
18:50 1016 30 845 24.95 19 66.1 35 3.3 38
18:55 1016 30 845 24.95 19.1 66.3 36 3.8 38.9
19:00 1016 30 845 24.95 19 66.3 37 4.1 39.4
19:05 1016 30 845 24.95 19.2 66.6 35 3.7 38.7
19:10 1016 30 845 24.95 19.4 67 35 3.6 38.4
19:15 1016 30 845 24.95 19.3 66.7 38 4.9 40.8
19:20 1016 30 845 24.95 18.8 65.8 39 4.5 40.2
19:25 1016 30 845 24.95 18.8 65.8 36 3.6 38.5
19:30 1016 30 845 24.95 18.4 65.1 42 5.5 41.9
19:35 1016 30 845 24.95 17.7 63.8 45 5.6 42.1
19:40 1016 30 845 24.95 17.2 62.9 46 5.7 42.2
19:45 1016 30 845 24.95 16.9 62.4 47 5.7 42.2
19:50 1016 30 845 24.95 16.7 62 49 6 42.8
19:55 1016 30 845 24.95 16.5 61.7 49 5.9 42.7
20:00 1016 30 845 24.95 16.5 61.6 49 5.9 42.5
20:05 1016 30 846 24.98 16.4 61.5 49 5.6 42.1
20:10 1016 30 846 24.98 16.4 61.5 47 5.2 41.4
20:15 1016 30 846 24.98 16.4 61.5 48 5.5 41.9
20:20 1016 30 846 24.98 16 60.8 52 6.3 43.3
20:25 1017 30.03 846 24.98 15.7 60.3 53 6.3 43.3
20:30 1017 30.03 846 24.98 15.5 59.8 53 6.1 43.1
20:35 1017 30.03 846 24.98 15.3 59.6 55 6.5 43.6
20:40 1017 30.03 846 24.98 15.1 59.1 56 6.6 43.8
20:45 1017 30.03 846 24.98 14.9 58.9 56 6.2 43.2
20:50 1017 30.03 846 24.98 14.9 58.8 57 6.5 43.7
20:55 1017 30.03 846 24.98 14.8 58.7 56 6.1 42.9
21:00 1017 30.03 846 24.98 15 58.9 54 5.8 42.5
21:05 1017 30.03 846 24.98 15.1 59.1 54 5.9 42.7
21:10 1017 30.03 846 24.98 14.9 58.7 57 6.6 43.9
21:15 1017 30.03 847 25.01 14.3 57.8 61 7.1 44.8
21:20 1018 30.06 847 25.01 13.8 56.9 63 7.1 44.7
21:25 1018 30.06 847 25.01 13.8 56.8 61 6.4 43.6
21:30 1018 30.06 847 25.01 13.9 57 63 7 44.6
21:35 1018 30.06 848 25.04 13.5 56.2 64 6.9 44.4
21:40 1019 30.09 848 25.04 13.3 55.9 63 6.5 43.7
21:45 1019 30.09 848 25.04 13.4 56.1 65 6.9 44.4
21:50 1019 30.09 848 25.04 13.1 55.5 69 7.5 45.5
21:55 1019 30.09 848 25.04 12.7 54.8 71 7.5 45.6
22:00 1019 30.09 848 25.04 12.5 54.4 72 7.6 45.7
22:05 1019 30.09 849 25.07 12.4 54.3 73 7.8 46
22:10 1019 30.09 849 25.07 12.4 54.2 74 7.9 46.2
22:15 1020 30.12 849 25.07 12.3 54.1 75 8 46.4
22:20 1020 30.12 849 25.07 12.3 54.2 73 7.6 45.7
22:25 1020 30.12 849 25.07 12.6 54.7 73 7.8 46.1
22:30 1020 30.12 849 25.07 12.5 54.6 73 7.9 46.2
22:35 1020 30.12 849 25.07 12.5 54.5 73 7.8 46.1
22:40 1020 30.12 849 25.07 12.6 54.6 71 7.6 45.6
22:45 1020 30.12 849 25.07 12.7 54.9 71 7.6 45.8
22:50 1020 30.12 849 25.07 12.5 54.5 73 7.7 45.9
22:55 1020 30.12 850 25.1 12.2 53.9 74 7.6 45.7
23:00 1021 30.15 850 25.1 11.9 53.4 75 7.6 45.6
23:05 1021 30.15 850 25.1 11.8 53.2 75 7.6 45.6
23:10 1021 30.15 850 25.1 11.7 53.1 76 7.6 45.7
23:15 1021 30.15 850 25.1 11.6 52.9 76 7.6 45.7
23:20 1021 30.15 850 25.1 11.4 52.4 78 7.7 45.8
23:25 1021 30.15 850 25.1 11.2 52.1 78 7.5 45.4
23:30 1021 30.15 850 25.1 11.3 52.4 77 7.5 45.6
23:35 1021 30.15 850 25.1 11.4 52.5 77 7.5 45.5
23:40 1021 30.15 850 25.1 11.5 52.7 77 7.6 45.7
23:45 1021 30.15 850 25.1 11.4 52.6 77 7.5 45.6
23:50 1021 30.15 850 25.1 11.5 52.6 77 7.6 45.6
23:55 1021 30.15 850 25.1 11.4 52.5 77 7.5 45.5
24:00 1021 30.15 850 25.1 11.5 52.7 76 7.5 45.6